createdAt,value
2023-03-06T00:00:34.902Z,5.90
2023-03-06T00:03:03.119Z,6.00
2023-03-06T00:05:31.376Z,5.90
2023-03-06T00:07:59.434Z,5.90
2023-03-06T00:10:29.579Z,5.90
2023-03-06T00:13:00.114Z,6.00
2023-03-06T00:15:29.139Z,6.00
2023-03-06T00:17:58.917Z,6.00
2023-03-06T00:20:28.772Z,6.00
2023-03-06T00:22:57.242Z,5.90
2023-03-06T00:25:25.535Z,5.90
2023-03-06T00:27:53.772Z,5.90
2023-03-06T00:30:24.065Z,5.80
2023-03-06T00:32:53.499Z,5.90
2023-03-06T00:35:22.952Z,5.90
2023-03-06T00:37:51.009Z,5.80
2023-03-06T00:40:21.589Z,5.80
2023-03-06T00:42:49.856Z,5.80
2023-03-06T00:45:18.033Z,5.80
2023-03-06T00:47:46.116Z,5.80
2023-03-06T00:50:14.109Z,5.70
2023-03-06T00:52:43.484Z,5.80
2023-03-06T00:55:12.020Z,5.70
2023-03-06T00:57:40.126Z,5.60
2023-03-06T01:00:11.538Z,5.60
2023-03-06T01:02:39.746Z,5.60
2023-03-06T01:05:09.144Z,5.60
2023-03-06T01:07:37.521Z,5.60
2023-03-06T01:10:08.949Z,5.70
2023-03-06T01:12:36.995Z,5.70
2023-03-06T01:15:06.274Z,5.60
2023-03-06T01:17:34.337Z,5.60
2023-03-06T01:20:02.560Z,5.60
2023-03-06T01:22:30.704Z,5.60
2023-03-06T01:24:58.755Z,5.60
2023-03-06T01:27:28.227Z,5.50
2023-03-06T01:29:56.406Z,5.50
2023-03-06T01:32:24.515Z,5.40
2023-03-06T01:34:52.518Z,5.30
2023-03-06T01:37:20.660Z,5.30
2023-03-06T01:39:48.693Z,5.30
2023-03-06T01:42:16.765Z,5.30
2023-03-06T01:45:03.899Z,5.30
2023-03-06T01:47:32.042Z,5.30
2023-03-06T01:50:01.665Z,5.30
2023-03-06T01:52:32.658Z,5.30
2023-03-06T01:55:04.638Z,5.30
2023-03-06T01:57:36.243Z,5.30
2023-03-06T02:00:10.130Z,5.30
2023-03-06T02:02:39.013Z,5.30
2023-03-06T02:05:08.601Z,5.30
2023-03-06T02:07:38.443Z,5.30
2023-03-06T02:10:07.268Z,5.30
2023-03-06T02:12:35.419Z,5.30
2023-03-06T02:15:05.367Z,5.40
2023-03-06T02:17:36.582Z,5.40
2023-03-06T02:20:11.550Z,5.50
2023-03-06T02:22:47.416Z,5.40
2023-03-06T02:25:32.120Z,5.40
2023-03-06T02:28:00.182Z,5.40
2023-03-06T02:30:30.810Z,5.50
2023-03-06T02:32:59.411Z,5.60
2023-03-06T02:35:28.670Z,5.60
2023-03-06T02:37:58.570Z,5.60
2023-03-06T02:40:28.108Z,5.70
2023-03-06T02:42:58.258Z,5.70
2023-03-06T02:45:33.262Z,5.80
2023-03-06T02:48:01.348Z,5.80
2023-03-06T02:50:29.379Z,5.80
2023-03-06T02:52:57.396Z,5.80
2023-03-06T02:55:26.921Z,5.80
2023-03-06T02:57:54.995Z,5.80
2023-03-06T03:00:23.265Z,5.80
2023-03-06T03:02:51.417Z,5.90
2023-03-06T03:05:19.500Z,5.90
2023-03-06T03:07:47.485Z,5.90
2023-03-06T03:10:16.179Z,5.90
2023-03-06T03:12:46.263Z,5.90
2023-03-06T03:15:14.229Z,6.00
2023-03-06T03:17:42.859Z,6.00
2023-03-06T03:20:14.765Z,6.00
2023-03-06T03:22:42.909Z,6.00
2023-03-06T03:25:11.306Z,6.00
2023-03-06T03:27:39.387Z,6.00
2023-03-06T03:30:10.683Z,6.00
2023-03-06T03:32:38.770Z,6.00
2023-03-06T03:35:09.296Z,6.00
2023-03-06T03:37:37.843Z,6.00
2023-03-06T03:40:07.321Z,6.10
2023-03-06T03:42:35.578Z,6.10
2023-03-06T03:45:03.786Z,6.00
2023-03-06T03:47:33.188Z,6.10
2023-03-06T03:50:01.184Z,6.10
2023-03-06T03:52:30.264Z,6.10
2023-03-06T03:54:58.419Z,6.10
2023-03-06T03:57:26.595Z,6.10
2023-03-06T03:59:54.884Z,6.10
2023-03-06T04:02:22.960Z,6.10
2023-03-06T04:04:52.463Z,6.00
2023-03-06T04:07:20.461Z,6.00
2023-03-06T04:09:48.447Z,5.90
2023-03-06T04:12:16.419Z,5.80
2023-03-06T04:14:44.392Z,5.70
2023-03-06T04:17:12.376Z,5.60
2023-03-06T04:19:40.342Z,5.50
2023-03-06T04:22:09.878Z,5.50
2023-03-06T04:24:37.982Z,5.40
2023-03-06T04:27:06.442Z,5.40
2023-03-06T04:29:34.519Z,5.30
2023-03-06T04:32:03.703Z,5.30
2023-03-06T04:34:31.712Z,5.20
2023-03-06T04:36:59.693Z,5.20
2023-03-06T04:39:29.150Z,5.20
2023-03-06T04:41:57.136Z,5.10
2023-03-06T04:44:25.283Z,5.10
2023-03-06T04:46:53.241Z,5.10
2023-03-06T04:49:21.241Z,5.10
2023-03-06T04:51:49.239Z,5.10
2023-03-06T04:54:18.996Z,5.10
2023-03-06T04:56:48.481Z,5.10
2023-03-06T04:59:16.614Z,5.00
2023-03-06T05:01:44.663Z,5.00
2023-03-06T05:04:12.711Z,5.00
2023-03-06T05:06:40.673Z,5.00
2023-03-06T05:09:08.758Z,5.00
2023-03-06T05:11:36.963Z,5.00
2023-03-06T05:14:06.356Z,4.90
2023-03-06T05:16:34.374Z,4.90
2023-03-06T05:19:02.398Z,4.90
2023-03-06T05:21:30.378Z,4.90
2023-03-06T05:23:58.410Z,5.00
2023-03-06T05:26:26.456Z,4.90
2023-03-06T05:28:55.274Z,4.90
2023-03-06T05:31:24.655Z,4.90
2023-03-06T05:33:52.741Z,4.80
2023-03-06T05:36:20.746Z,4.80
2023-03-06T05:38:48.754Z,4.90
2023-03-06T05:41:16.769Z,4.80
2023-03-06T05:43:44.854Z,4.80
2023-03-06T05:46:13.247Z,4.80
2023-03-06T05:48:42.816Z,4.90
2023-03-06T05:51:11.996Z,4.90
2023-03-06T05:53:40.151Z,4.90
2023-03-06T05:56:09.918Z,4.90
2023-03-06T05:58:39.315Z,4.80
2023-03-06T06:01:11.240Z,4.90
2023-03-06T06:03:39.453Z,4.90
2023-03-06T06:06:12.130Z,4.90
2023-03-06T06:08:40.802Z,4.90
2023-03-06T06:11:10.624Z,4.90
2023-03-06T06:13:39.408Z,4.90
2023-03-06T06:16:11.512Z,4.90
2023-03-06T06:18:41.401Z,4.90
2023-03-06T06:21:13.358Z,4.90
2023-03-06T06:23:41.497Z,4.80
2023-03-06T06:26:10.743Z,4.80
2023-03-06T06:28:39.074Z,4.80
2023-03-06T06:31:12.232Z,4.80
2023-03-06T06:33:40.667Z,4.70
2023-03-06T06:36:17.602Z,4.70
2023-03-06T06:38:45.915Z,4.80
2023-03-06T06:44:02.387Z,4.80
2023-03-06T06:47:18.202Z,4.90
2023-03-06T06:49:18.757Z,4.90
2023-03-06T06:51:48.156Z,4.90
2023-03-06T06:54:16.173Z,4.90
2023-03-06T06:56:44.184Z,4.90
2023-03-06T06:59:17.238Z,4.90
2023-03-06T07:01:46.193Z,5.00
2023-03-06T07:04:14.743Z,5.00
2023-03-06T07:06:43.392Z,5.00
2023-03-06T07:09:13.579Z,5.00
2023-03-06T07:11:42.189Z,5.10
2023-03-06T07:14:10.258Z,5.10
2023-03-06T07:16:39.046Z,5.20
2023-03-06T07:19:07.628Z,5.20
2023-03-06T07:21:35.796Z,5.20
2023-03-06T07:24:03.855Z,5.20
2023-03-06T07:26:34.768Z,5.20
2023-03-06T07:29:03.593Z,5.20
2023-03-06T07:31:31.919Z,5.20
2023-03-06T07:34:01.909Z,5.20
2023-03-06T07:36:31.186Z,5.20
2023-03-06T07:38:59.541Z,5.20
2023-03-06T07:41:27.622Z,5.20
2023-03-06T07:43:57.015Z,5.10
2023-03-06T07:46:25.136Z,5.20
2023-03-06T07:48:53.215Z,5.20
2023-03-06T07:51:22.963Z,5.20
2023-03-06T07:53:51.556Z,5.30
2023-03-06T07:56:19.987Z,5.30
2023-03-06T07:58:48.790Z,5.40
2023-03-06T08:01:20.760Z,5.50
2023-03-06T08:03:49.988Z,5.50
2023-03-06T08:06:20.668Z,5.60
2023-03-06T08:08:49.770Z,5.60
2023-03-06T08:11:19.986Z,5.60
2023-03-06T08:13:48.770Z,5.70
2023-03-06T08:16:20.461Z,5.80
2023-03-06T08:18:48.568Z,5.80
2023-03-06T08:21:18.526Z,5.90
2023-03-06T08:23:47.644Z,6.00
2023-03-06T08:26:17.361Z,6.00
2023-03-06T08:28:45.765Z,6.00
2023-03-06T08:31:22.303Z,6.00
2023-03-06T08:33:51.787Z,6.00
2023-03-06T08:36:20.122Z,6.10
2023-03-06T08:38:48.504Z,6.10
2023-03-06T08:41:16.532Z,6.10
2023-03-06T08:43:45.147Z,6.20
2023-03-06T08:46:13.543Z,6.30
2023-03-06T08:48:41.957Z,6.40
2023-03-06T08:51:11.861Z,6.40
2023-03-06T08:53:43.501Z,6.40
2023-03-06T08:56:17.380Z,6.50
2023-03-06T08:58:45.986Z,6.60
2023-03-06T09:01:15.946Z,6.70
2023-03-06T09:03:44.192Z,6.70
2023-03-06T09:06:14.444Z,6.80
2023-03-06T09:08:44.373Z,6.80
2023-03-06T09:11:13.369Z,6.90
2023-03-06T09:13:42.151Z,6.90
2023-03-06T09:16:11.288Z,7.00
2023-03-06T09:18:39.370Z,7.00
2023-03-06T09:21:08.562Z,7.00
2023-03-06T09:23:40.009Z,7.10
2023-03-06T09:26:08.962Z,7.00
2023-03-06T09:28:38.950Z,7.00
2023-03-06T09:31:10.326Z,7.00
2023-03-06T09:33:38.807Z,6.90
2023-03-06T09:36:15.625Z,7.00
2023-03-06T09:38:45.996Z,7.00
2023-03-06T09:41:29.300Z,7.00
2023-03-06T09:44:04.904Z,7.00
2023-03-06T09:46:45.630Z,7.00
2023-03-06T09:49:36.028Z,7.00
2023-03-06T09:52:17.247Z,7.00
2023-03-06T09:54:48.006Z,7.00
2023-03-06T09:57:22.569Z,7.00
2023-03-06T09:59:55.464Z,7.00
2023-03-06T10:02:31.684Z,7.10
2023-03-06T10:05:04.061Z,7.20
2023-03-06T10:07:43.558Z,7.20
2023-03-06T10:10:19.834Z,7.20
2023-03-06T10:12:54.946Z,7.10
2023-03-06T10:15:26.623Z,7.20
2023-03-06T10:17:55.177Z,7.20
2023-03-06T10:20:26.152Z,7.20
2023-03-06T10:23:05.948Z,7.20
2023-03-06T10:25:44.429Z,7.20
2023-03-06T10:28:17.314Z,7.30
2023-03-06T10:30:56.882Z,7.30
2023-03-06T10:33:39.364Z,7.30
2023-03-06T10:36:07.914Z,7.30
2023-03-06T10:38:37.821Z,7.30
2023-03-06T10:41:17.522Z,7.30
2023-03-06T10:44:08.010Z,7.30
2023-03-06T10:46:39.257Z,7.30
2023-03-06T10:49:23.314Z,7.40
2023-03-06T10:52:00.913Z,7.40
2023-03-06T10:54:33.032Z,7.50
2023-03-06T10:57:20.023Z,7.50
2023-03-06T11:00:04.827Z,7.60
2023-03-06T11:02:38.843Z,7.70
2023-03-06T11:05:21.690Z,7.70
2023-03-06T11:07:56.598Z,7.70
2023-03-06T11:10:24.984Z,7.80
2023-03-06T11:13:06.237Z,7.80
2023-03-06T11:15:35.311Z,7.90
2023-03-06T11:18:23.589Z,8.00
2023-03-06T11:20:54.350Z,8.10
2023-03-06T11:23:30.270Z,8.20
2023-03-06T11:26:04.685Z,8.20
2023-03-06T11:28:35.497Z,8.20
2023-03-06T11:31:12.229Z,8.10
2023-03-06T11:33:49.050Z,8.10
2023-03-06T11:36:19.866Z,8.10
2023-03-06T11:38:51.047Z,8.10
2023-03-06T11:41:26.285Z,8.20
2023-03-06T11:44:02.069Z,8.30
2023-03-06T11:46:35.411Z,8.40
2023-03-06T11:49:12.548Z,8.50
2023-03-06T11:51:45.878Z,8.60
2023-03-06T11:54:14.912Z,8.70
2023-03-06T11:56:50.671Z,8.80
2023-03-06T11:59:51.982Z,8.90
2023-03-06T12:02:35.153Z,9.00
2023-03-06T12:05:21.251Z,9.10
2023-03-06T12:07:55.998Z,9.20
2023-03-06T12:10:27.980Z,9.20
2023-03-06T12:13:14.862Z,9.20
2023-03-06T12:16:04.235Z,9.20
2023-03-06T12:18:41.339Z,9.20
2023-03-06T12:21:19.795Z,9.20
2023-03-06T12:24:08.431Z,9.20
2023-03-06T12:26:51.132Z,9.10
2023-03-06T12:29:50.832Z,9.10
2023-03-06T12:32:31.082Z,9.10
2023-03-06T12:35:09.806Z,9.10
2023-03-06T12:37:53.399Z,9.20
2023-03-06T12:40:52.584Z,9.30
2023-03-06T12:43:53.973Z,9.30
2023-03-06T12:46:25.050Z,9.30
2023-03-06T12:49:03.319Z,9.40
2023-03-06T12:51:32.694Z,9.40
2023-03-06T12:54:04.511Z,9.30
2023-03-06T12:56:34.381Z,9.30
2023-03-06T12:59:03.260Z,9.30
2023-03-06T13:01:55.169Z,9.30
2023-03-06T13:04:46.002Z,9.40
2023-03-06T13:07:45.234Z,9.40
2023-03-06T13:10:24.018Z,9.30
2023-03-06T13:12:56.855Z,9.20
2023-03-06T13:15:38.864Z,9.30
2023-03-06T13:18:55.768Z,9.30
2023-03-06T13:22:01.142Z,9.40
2023-03-06T13:24:31.403Z,9.30
2023-03-06T13:27:03.941Z,9.30
2023-03-06T13:30:04.193Z,9.30
2023-03-06T13:32:35.990Z,9.20
2023-03-06T13:35:48.694Z,9.20
2023-03-06T13:38:53.032Z,9.10
2023-03-06T13:41:52.684Z,9.10
2023-03-06T13:44:43.924Z,8.90
2023-03-06T13:47:46.120Z,8.70
2023-03-06T13:50:40.206Z,8.50
2023-03-06T13:53:51.664Z,8.30
2023-03-06T13:56:48.661Z,8.20
2023-03-06T14:00:03.084Z,8.30
2023-03-06T14:02:59.583Z,8.40
2023-03-06T14:05:42.267Z,8.50
2023-03-06T14:08:14.473Z,8.50
2023-03-06T14:10:43.219Z,8.60
2023-03-06T14:13:18.526Z,8.60
2023-03-06T14:15:48.501Z,8.60
2023-03-06T14:18:26.776Z,8.60
2023-03-06T14:20:58.842Z,8.60
2023-03-06T14:23:30.340Z,8.60
2023-03-06T14:26:09.716Z,8.70
2023-03-06T14:28:39.382Z,8.70
2023-03-06T14:31:08.197Z,8.80
2023-03-06T14:33:50.265Z,8.80
2023-03-06T14:36:21.019Z,8.80
2023-03-06T14:38:54.817Z,8.60
2023-03-06T14:41:28.620Z,8.60
2023-03-06T14:44:10.462Z,8.50
2023-03-06T14:46:38.894Z,8.40
2023-03-06T14:49:10.783Z,8.30
2023-03-06T14:51:43.655Z,8.20
2023-03-06T14:54:18.149Z,8.00
2023-03-06T14:56:49.025Z,7.80
2023-03-06T14:59:22.168Z,7.70
2023-03-06T15:01:52.879Z,7.70
2023-03-06T15:04:29.586Z,7.60
2023-03-06T15:06:59.443Z,7.60
2023-03-06T15:09:30.813Z,7.50
2023-03-06T15:12:00.870Z,7.50
2023-03-06T15:14:33.245Z,7.50
2023-03-06T15:17:31.411Z,7.50
2023-03-06T15:20:02.357Z,7.30
2023-03-06T15:22:37.761Z,7.20
2023-03-06T15:25:21.533Z,7.00
2023-03-06T15:27:54.168Z,7.00
2023-03-06T15:30:26.159Z,6.90
2023-03-06T15:33:13.304Z,6.90
2023-03-06T15:35:57.941Z,6.90
2023-03-06T15:38:33.009Z,6.90
2023-03-06T15:41:03.725Z,7.00
2023-03-06T15:43:36.290Z,7.00
2023-03-06T15:46:07.724Z,7.00
2023-03-06T15:48:37.019Z,7.00
2023-03-06T15:51:08.821Z,7.00
2023-03-06T15:53:37.274Z,7.00
2023-03-06T15:56:05.604Z,7.00
2023-03-06T15:58:35.454Z,7.00
2023-03-06T16:01:04.419Z,6.90
2023-03-06T16:03:32.807Z,6.90
2023-03-06T16:06:00.925Z,6.80
2023-03-06T16:08:30.429Z,6.80
2023-03-06T16:10:59.089Z,6.80
2023-03-06T16:13:29.235Z,6.80
2023-03-06T16:15:57.529Z,6.90
2023-03-06T16:18:25.612Z,6.90
2023-03-06T16:20:53.805Z,6.90
2023-03-06T16:23:21.975Z,6.90
2023-03-06T16:25:51.481Z,6.90
2023-03-06T16:28:19.624Z,6.90
2023-03-06T16:30:47.706Z,6.90
2023-03-06T16:33:16.035Z,6.90
2023-03-06T16:35:46.647Z,6.80
2023-03-06T16:38:15.671Z,6.70
2023-03-06T16:40:44.165Z,6.70
2023-03-06T16:43:16.231Z,6.70
2023-03-06T16:45:44.825Z,6.60
2023-03-06T16:48:17.634Z,6.60
2023-03-06T16:50:46.340Z,6.50
2023-03-06T16:53:15.503Z,6.50
2023-03-06T16:55:43.623Z,6.40
2023-03-06T16:58:13.842Z,6.40
2023-03-06T17:00:42.235Z,6.40
2023-03-06T17:03:10.264Z,6.30
2023-03-06T17:05:43.759Z,6.20
2023-03-06T17:08:15.605Z,6.20
2023-03-06T17:11:04.766Z,6.20
2023-03-06T17:14:06.743Z,6.20
2023-03-06T17:16:36.999Z,6.20
2023-03-06T17:19:05.177Z,6.10
2023-03-06T17:21:35.335Z,6.10
2023-03-06T17:24:03.913Z,6.00
2023-03-06T17:26:32.005Z,6.00
2023-03-06T17:29:01.415Z,6.00
2023-03-06T17:31:29.757Z,6.00
2023-03-06T17:34:00.722Z,5.90
2023-03-06T17:36:29.376Z,5.80
2023-03-06T17:38:58.053Z,5.80
2023-03-06T17:41:26.629Z,5.80
2023-03-06T17:43:57.843Z,5.70
2023-03-06T17:46:27.567Z,5.70
2023-03-06T17:48:56.238Z,5.70
2023-03-06T17:51:27.320Z,5.60
2023-03-06T17:53:55.663Z,5.60
2023-03-06T17:56:23.727Z,5.60
2023-03-06T17:58:52.396Z,5.60
2023-03-06T18:01:22.382Z,5.60
2023-03-06T18:03:52.534Z,5.60
2023-03-06T18:06:22.220Z,5.60
2023-03-06T18:08:53.033Z,5.60
2023-03-06T18:11:22.017Z,5.60
2023-03-06T18:13:50.450Z,5.60
2023-03-06T18:16:20.729Z,5.50
2023-03-06T18:18:49.135Z,5.50
2023-03-06T18:21:18.561Z,5.50
2023-03-06T18:23:46.696Z,5.50
2023-03-06T18:26:17.097Z,5.40
2023-03-06T18:28:46.545Z,5.40
2023-03-06T18:31:18.131Z,5.40
2023-03-06T18:33:48.263Z,5.30
2023-03-06T18:36:18.422Z,5.30
2023-03-06T18:38:48.058Z,5.30
2023-03-06T18:41:16.148Z,5.30
2023-03-06T18:43:44.253Z,5.20
2023-03-06T18:46:12.677Z,5.20
2023-03-06T18:48:40.840Z,5.10
2023-03-06T18:51:10.968Z,5.10
2023-03-06T18:53:40.899Z,5.00
2023-03-06T18:56:10.622Z,5.00
2023-03-06T18:58:38.683Z,5.00
2023-03-06T19:01:07.726Z,4.90
2023-03-06T19:03:36.159Z,4.90
2023-03-06T19:06:07.123Z,4.90
2023-03-06T19:08:36.232Z,4.80
2023-03-06T19:11:09.537Z,4.80
2023-03-06T19:13:38.714Z,4.80
2023-03-06T19:16:08.738Z,4.80
2023-03-06T19:18:37.300Z,4.70
2023-03-06T19:21:09.744Z,4.70
2023-03-06T19:23:39.767Z,4.70
2023-03-06T19:26:10.769Z,4.60
2023-03-06T19:28:41.566Z,4.50
2023-03-06T19:31:12.134Z,4.50
2023-03-06T19:33:41.428Z,4.50
2023-03-06T19:36:12.589Z,4.50
2023-03-06T19:38:41.232Z,4.50
2023-03-06T19:41:13.580Z,4.50
2023-03-06T19:43:42.524Z,4.40
2023-03-06T19:46:13.420Z,4.40
2023-03-06T19:48:41.802Z,4.40
2023-03-06T19:51:10.569Z,4.40
2023-03-06T19:53:39.056Z,4.30
2023-03-06T19:56:09.386Z,4.30
2023-03-06T19:58:40.625Z,4.20
2023-03-06T20:01:10.931Z,4.20
2023-03-06T20:03:39.016Z,4.20
2023-03-06T20:06:09.264Z,4.20
2023-03-06T20:08:37.562Z,4.20
2023-03-06T20:11:06.229Z,4.20
2023-03-06T20:13:34.981Z,4.10
2023-03-06T20:16:05.880Z,4.10
2023-03-06T20:18:34.485Z,4.10
2023-03-06T20:21:04.551Z,4.10
2023-03-06T20:23:33.369Z,4.10
2023-03-06T20:26:04.090Z,4.10
2023-03-06T20:28:32.322Z,4.10
2023-03-06T20:31:00.991Z,4.10
2023-03-06T20:33:30.617Z,4.10
2023-03-06T20:35:58.892Z,4.10
2023-03-06T20:38:27.077Z,4.10
2023-03-06T20:40:57.832Z,4.10
2023-03-06T20:43:26.099Z,4.10
2023-03-06T20:45:58.753Z,4.10
2023-03-06T20:48:27.179Z,4.10
2023-03-06T20:51:04.536Z,4.00
2023-03-06T20:53:32.832Z,4.00
2023-03-06T20:56:00.901Z,4.00
2023-03-06T20:58:31.712Z,4.00
2023-03-06T21:01:02.315Z,3.90
2023-03-06T21:03:31.005Z,3.90
2023-03-06T21:05:59.177Z,3.90
2023-03-06T21:08:29.320Z,3.90
2023-03-06T21:10:57.315Z,3.80
2023-03-06T21:13:25.320Z,3.80
2023-03-06T21:15:53.738Z,3.80
2023-03-06T21:18:21.902Z,3.80
2023-03-06T21:20:50.085Z,3.80
2023-03-06T21:23:18.269Z,3.80
2023-03-06T21:25:52.379Z,3.80
2023-03-06T21:28:21.256Z,3.80
2023-03-06T21:30:49.375Z,3.80
2023-03-06T21:33:17.609Z,3.80
2023-03-06T21:35:46.467Z,3.80
2023-03-06T21:38:15.550Z,3.80
2023-03-06T21:40:45.455Z,3.80
2023-03-06T21:43:15.811Z,3.70
2023-03-06T21:45:45.857Z,3.70
2023-03-06T21:48:14.587Z,3.70
2023-03-06T21:50:43.313Z,3.70
2023-03-06T21:53:11.410Z,3.70
2023-03-06T21:55:41.654Z,3.70
2023-03-06T21:58:10.043Z,3.70
2023-03-06T22:00:41.051Z,3.70
2023-03-06T22:03:09.342Z,3.70
2023-03-06T22:05:37.593Z,3.70
2023-03-06T22:08:05.899Z,3.70
2023-03-06T22:10:35.590Z,3.70
2023-03-06T22:13:03.754Z,3.70
2023-03-06T22:15:32.152Z,3.70
2023-03-06T22:18:02.165Z,3.70
2023-03-06T22:20:30.249Z,3.70
2023-03-06T22:22:58.721Z,3.70
2023-03-06T22:25:26.901Z,3.70
2023-03-06T22:27:55.237Z,3.70
2023-03-06T22:30:23.250Z,3.70
2023-03-06T22:32:53.867Z,3.60
2023-03-06T22:35:24.092Z,3.60
2023-03-06T22:37:52.279Z,3.60
2023-03-06T22:40:20.583Z,3.60
2023-03-06T22:42:48.712Z,3.60
2023-03-06T22:45:17.105Z,3.50
2023-03-06T22:47:45.167Z,3.50
2023-03-06T22:50:13.554Z,3.50
2023-03-06T22:52:43.168Z,3.50
2023-03-06T22:55:11.602Z,3.50
2023-03-06T22:57:39.749Z,3.50
2023-03-06T23:00:11.156Z,3.50
2023-03-06T23:02:39.496Z,3.40
2023-03-06T23:05:07.720Z,3.40
2023-03-06T23:07:35.889Z,3.40
2023-03-06T23:10:06.855Z,3.30
2023-03-06T23:12:34.907Z,3.30
2023-03-06T23:15:03.121Z,3.30
2023-03-06T23:17:31.302Z,3.20
2023-03-06T23:19:59.271Z,3.20
2023-03-06T23:22:27.378Z,3.20
2023-03-06T23:24:55.408Z,3.20
2023-03-06T23:27:24.907Z,3.10
2023-03-06T23:29:56.829Z,3.10
2023-03-06T23:32:24.947Z,3.10
2023-03-06T23:34:53.449Z,3.10
2023-03-06T23:37:21.465Z,3.00
2023-03-06T23:39:49.501Z,3.00
2023-03-06T23:42:17.677Z,3.00
2023-03-06T23:44:47.416Z,3.10
2023-03-06T23:47:17.376Z,3.10
2023-03-06T23:49:45.488Z,3.20
2023-03-06T23:52:13.503Z,3.30
2023-03-06T23:54:41.765Z,3.30
2023-03-06T23:57:10.446Z,3.30
2023-03-06T23:59:38.910Z,3.40
